Time;durP1;ratioP1;P1;durP2;ratioP2;P2;SDS_P1;SDS_P2;PMS_P1;PMS_P2;Temp;Humidity;BMP_temperature;BMP_pressure;BME280_temperature;BME280_humidity;BME280_pressure;Samples;Min_cycle;Max_cycle;Signal;HPM_P1;HPM_P2
2020/12/29 00:00:40;;;;;;;2.12;1.20;;;2.90;99.90;;;;;;1992448;70;21014;-76
2020/12/29 00:03:06;;;;;;;0.78;0.72;;;3.10;99.90;;;;;;1993008;71;21070;-73
2020/12/29 00:05:32;;;;;;;1.27;0.90;;;3.20;99.90;;;;;;1993718;71;21105;-76
2020/12/29 00:07:58;;;;;;;1.95;0.93;;;3.30;99.90;;;;;;1985612;72;21050;-76
2020/12/29 00:10:24;;;;;;;0.60;0.60;;;3.50;99.90;;;;;;1991311;71;21058;-74
2020/12/29 00:12:50;;;;;;;0.50;0.50;;;3.60;99.90;;;;;;1960515;72;21074;-75
2020/12/29 00:15:17;;;;;;;1.90;0.85;;;3.70;99.90;;;;;;1961016;71;21131;-76
2020/12/29 00:17:43;;;;;;;0.53;0.50;;;3.70;99.90;;;;;;1953312;72;21496;-75
2020/12/29 00:20:09;;;;;;;1.05;0.60;;;3.60;99.90;;;;;;1947352;72;21498;-74
2020/12/29 00:22:35;;;;;;;0.53;0.50;;;3.60;99.90;;;;;;1944067;72;21072;-74
2020/12/29 00:25:01;;;;;;;1.40;0.60;;;3.70;99.90;;;;;;1951049;71;21140;-73
2020/12/29 00:27:27;;;;;;;0.37;0.37;;;3.70;99.90;;;;;;1948024;73;21060;-75
2020/12/29 00:29:53;;;;;;;1.35;0.35;;;3.70;99.90;;;;;;1948793;72;21148;-75
2020/12/29 00:32:20;;;;;;;0.50;0.50;;;3.60;99.90;;;;;;1951011;72;21132;-74
2020/12/29 00:34:46;;;;;;;0.42;0.30;;;3.70;99.90;;;;;;1951967;72;21203;-75
2020/12/29 00:37:12;;;;;;;0.60;0.50;;;3.60;99.90;;;;;;1959553;72;21185;-74
2020/12/29 00:39:39;;;;;;;0.68;0.40;;;3.60;99.90;;;;;;1951734;72;21252;-75
2020/12/29 00:42:05;;;;;;;0.40;0.40;;;3.60;99.90;;;;;;1943811;72;21157;-75
2020/12/29 00:44:31;;;;;;;0.30;0.30;;;3.60;99.90;;;;;;1953811;72;21230;-76
2020/12/29 00:46:58;;;;;;;0.65;0.40;;;3.60;99.90;;;;;;1957326;72;21467;-75
2020/12/29 00:49:27;;;;;;;0.40;0.40;;;3.60;99.90;;;;;;1956792;72;21151;-75
2020/12/29 00:51:53;;;;;;;0.35;0.35;;;3.50;99.90;;;;;;1945520;72;21133;-76
2020/12/29 00:54:19;;;;;;;0.37;0.37;;;3.50;99.90;;;;;;1953999;73;21482;-75
2020/12/29 00:56:45;;;;;;;0.40;0.40;;;3.40;99.90;;;;;;1961227;71;21062;-75
2020/12/29 00:59:11;;;;;;;0.80;0.72;;;3.40;99.90;;;;;;1944288;72;21076;-75
2020/12/29 01:01:39;;;;;;;1.45;0.70;;;3.30;99.90;;;;;;1950641;72;21079;-75
2020/12/29 01:04:05;;;;;;;1.52;0.93;;;3.30;99.90;;;;;;1946970;72;21070;-75
2020/12/29 01:06:31;;;;;;;1.32;0.50;;;3.20;99.90;;;;;;1951511;73;21158;-76
2020/12/29 01:08:57;;;;;;;0.40;0.40;;;3.20;99.90;;;;;;1950720;73;21037;-76
2020/12/29 01:11:23;;;;;;;0.50;0.50;;;3.20;99.90;;;;;;1954846;72;21113;-75
2020/12/29 01:13:49;;;;;;;2.15;1.15;;;3.20;99.90;;;;;;1949440;72;21511;-73
2020/12/29 01:16:15;;;;;;;2.30;0.70;;;3.40;99.90;;;;;;1955639;73;21531;-75
2020/12/29 01:18:42;;;;;;;0.50;0.50;;;3.30;99.90;;;;;;1951022;72;21246;-76
2020/12/29 01:21:08;;;;;;;0.60;0.60;;;3.50;99.90;;;;;;1935546;72;21138;-75
2020/12/29 01:23:34;;;;;;;0.42;0.42;;;3.60;99.90;;;;;;1956015;72;21071;-75
2020/12/29 01:26:00;;;;;;;0.68;0.37;;;3.70;99.90;;;;;;1956604;72;21040;-75
2020/12/29 01:28:26;;;;;;;0.35;0.30;;;3.90;99.90;;;;;;1949855;73;21063;-75
2020/12/29 01:30:52;;;;;;;0.13;0.13;;;4.00;99.90;;;;;;1948458;72;21138;-75
2020/12/29 01:33:18;;;;;;;0.17;0.17;;;4.30;99.90;;;;;;1958518;72;21063;-73
2020/12/29 01:35:44;;;;;;;0.30;0.30;;;4.40;99.90;;;;;;1948972;73;21458;-75
2020/12/29 01:38:10;;;;;;;0.20;0.20;;;4.40;99.90;;;;;;1957318;72;21581;-76
2020/12/29 01:40:37;;;;;;;0.80;0.20;;;4.40;99.90;;;;;;1955431;71;21551;-76
2020/12/29 01:43:03;;;;;;;0.30;0.30;;;4.30;99.90;;;;;;1942750;72;21719;-76
2020/12/29 01:45:29;;;;;;;0.85;0.37;;;4.20;99.90;;;;;;1957462;72;21190;-76
2020/12/29 01:47:55;;;;;;;0.10;0.10;;;4.30;99.90;;;;;;1957462;72;21132;-76
2020/12/29 01:50:23;;;;;;;0.15;0.15;;;4.10;99.90;;;;;;1939801;72;21148;-75
2020/12/29 01:52:49;;;;;;;0.28;0.28;;;4.20;99.90;;;;;;1952659;71;21493;-74
2020/12/29 01:55:15;;;;;;;0.10;0.10;;;4.20;99.90;;;;;;1932854;72;21258;-75
2020/12/29 01:57:41;;;;;;;0.10;0.10;;;4.20;99.90;;;;;;1951184;72;21076;-75
2020/12/29 02:00:07;;;;;;;0.65;0.30;;;4.10;99.90;;;;;;1955038;73;21116;-76
2020/12/29 02:02:34;;;;;;;0.30;0.20;;;4.00;99.90;;;;;;1956659;73;21125;-76
2020/12/29 02:05:00;;;;;;;0.20;0.20;;;3.90;99.90;;;;;;1949373;71;21063;-76
2020/12/29 02:07:26;;;;;;;0.65;0.50;;;3.90;99.90;;;;;;1950991;73;21137;-76
2020/12/29 02:09:52;;;;;;;0.20;0.20;;;3.90;99.90;;;;;;1953783;73;21120;-73
2020/12/29 02:12:18;;;;;;;0.80;0.30;;;3.80;99.90;;;;;;1956807;72;21078;-76
2020/12/29 02:14:44;;;;;;;0.15;0.15;;;3.90;99.90;;;;;;1946398;71;21480;-75
2020/12/29 02:17:10;;;;;;;0.10;0.10;;;3.90;99.90;;;;;;1948749;72;21447;-76
2020/12/29 02:19:36;;;;;;;0.90;0.17;;;3.90;99.90;;;;;;1941468;72;21494;-74
2020/12/29 02:22:02;;;;;;;0.17;0.17;;;3.90;99.90;;;;;;1949403;72;21059;-74
2020/12/29 02:24:29;;;;;;;0.30;0.30;;;3.90;99.90;;;;;;1945924;72;21176;-75
2020/12/29 02:26:55;;;;;;;0.13;0.13;;;3.90;99.90;;;;;;1937887;72;21145;-75
2020/12/29 02:29:21;;;;;;;0.10;0.10;;;4.00;99.90;;;;;;1952799;72;21069;-76
2020/12/29 02:31:47;;;;;;;0.20;0.20;;;4.00;99.90;;;;;;1948682;72;21076;-76
2020/12/29 02:34:13;;;;;;;0.20;0.20;;;4.10;99.90;;;;;;1957818;72;21048;-75
2020/12/29 02:36:39;;;;;;;0.47;0.30;;;4.00;99.90;;;;;;1953264;73;21045;-76
2020/12/29 02:39:05;;;;;;;0.20;0.20;;;4.00;99.90;;;;;;1958330;72;21080;-77
2020/12/29 02:41:31;;;;;;;0.20;0.20;;;3.90;99.90;;;;;;1952524;72;21080;-76
2020/12/29 02:43:58;;;;;;;1.00;0.30;;;3.90;99.90;;;;;;1951959;73;21149;-75
2020/12/29 02:46:25;;;;;;;0.37;0.25;;;3.90;99.90;;;;;;1949139;72;21177;-75
2020/12/29 02:48:51;;;;;;;0.53;0.30;;;4.00;99.90;;;;;;1951602;72;21136;-75
2020/12/29 02:51:17;;;;;;;0.55;0.20;;;4.40;99.90;;;;;;1946482;72;21150;-75
2020/12/29 02:53:43;;;;;;;0.10;0.10;;;4.80;99.90;;;;;;1955905;71;21092;-75
2020/12/29 02:56:10;;;;;;;0.20;0.20;;;4.90;99.90;;;;;;1950741;71;21062;-76
2020/12/29 02:58:36;;;;;;;0.10;0.10;;;4.80;99.90;;;;;;1948291;72;21181;-76
2020/12/29 03:01:02;;;;;;;0.10;0.10;;;4.80;99.90;;;;;;1942998;72;21127;-76
2020/12/29 03:03:28;;;;;;;0.00;0.00;;;4.90;99.90;;;;;;1950469;73;21483;-75
2020/12/29 03:05:56;;;;;;;0.20;0.20;;;4.90;99.90;;;;;;1943829;72;21074;-75
2020/12/29 03:08:22;;;;;;;0.10;0.10;;;4.90;99.90;;;;;;1944437;71;21327;-76
2020/12/29 03:10:48;;;;;;;0.25;0.15;;;5.00;99.90;;;;;;1955770;72;21476;-76
2020/12/29 03:13:14;;;;;;;0.10;0.10;;;5.20;99.90;;;;;;1948843;71;21422;-76
2020/12/29 03:15:40;;;;;;;0.03;0.03;;;5.20;99.90;;;;;;1951341;72;21063;-76
2020/12/29 03:18:06;;;;;;;5.37;0.10;;;5.10;99.90;;;;;;1949396;71;21546;-76
2020/12/29 03:20:32;;;;;;;1.85;0.20;;;5.10;99.90;;;;;;1945000;71;21339;-76
2020/12/29 03:22:58;;;;;;;0.10;0.10;;;5.10;99.90;;;;;;1947456;72;21076;-76
2020/12/29 03:25:24;;;;;;;0.10;0.10;;;5.00;99.90;;;;;;1942813;72;21080;-76
2020/12/29 03:27:51;;;;;;;0.20;0.20;;;4.90;99.90;;;;;;1958231;73;21165;-75
2020/12/29 03:30:17;;;;;;;0.10;0.10;;;4.80;99.90;;;;;;1945500;72;21184;-75
2020/12/29 03:32:43;;;;;;;0.50;0.17;;;4.80;99.90;;;;;;1947703;72;21072;-76
2020/12/29 03:35:09;;;;;;;0.10;0.10;;;4.70;99.90;;;;;;1962091;72;21068;-76
2020/12/29 03:37:35;;;;;;;0.10;0.10;;;4.70;99.90;;;;;;1946157;72;21057;-76
2020/12/29 03:40:01;;;;;;;0.10;0.10;;;4.60;99.90;;;;;;1935400;72;21050;-76
2020/12/29 03:42:29;;;;;;;2.58;0.30;;;4.60;99.90;;;;;;1936361;73;21118;-76
2020/12/29 03:44:55;;;;;;;0.17;0.17;;;4.60;99.90;;;;;;1955245;71;21059;-76
2020/12/29 03:47:21;;;;;;;0.10;0.10;;;4.50;99.90;;;;;;1951753;71;21055;-74
2020/12/29 03:49:47;;;;;;;0.45;0.33;;;4.60;99.90;;;;;;1947907;72;21121;-75
2020/12/29 03:52:13;;;;;;;0.53;0.20;;;4.60;99.90;;;;;;1946704;73;21481;-75
2020/12/29 03:54:39;;;;;;;0.10;0.10;;;4.50;99.90;;;;;;1946596;72;21508;-76
2020/12/29 03:57:05;;;;;;;1.07;0.20;;;4.50;99.90;;;;;;1957385;73;21067;-77
2020/12/29 03:59:32;;;;;;;0.20;0.20;;;4.50;99.90;;;;;;1952744;72;21067;-76
2020/12/29 04:01:58;;;;;;;0.10;0.10;;;4.50;99.90;;;;;;1950850;72;21080;-76
2020/12/29 04:04:24;;;;;;;1.10;0.15;;;4.50;99.90;;;;;;1956536;72;21257;-75
2020/12/29 04:06:50;;;;;;;1.47;0.30;;;4.50;99.90;;;;;;1954205;72;21039;-77
2020/12/29 04:09:16;;;;;;;0.10;0.10;;;4.60;99.90;;;;;;1947348;71;21133;-75
2020/12/29 04:11:42;;;;;;;0.37;0.30;;;4.60;99.90;;;;;;1952377;71;21488;-76
2020/12/29 04:14:08;;;;;;;0.20;0.20;;;4.60;99.90;;;;;;1956256;71;21565;-75
2020/12/29 04:16:37;;;;;;;0.10;0.10;;;4.60;99.90;;;;;;1985741;71;21454;-74
2020/12/29 04:19:04;;;;;;;0.50;0.30;;;4.60;99.90;;;;;;1985666;70;21074;-76
2020/12/29 04:21:30;;;;;;;0.45;0.30;;;4.60;99.90;;;;;;1985129;72;21642;-76
2020/12/29 04:23:56;;;;;;;0.10;0.10;;;4.60;99.90;;;;;;1979556;70;21162;-75
2020/12/29 04:26:23;;;;;;;0.20;0.20;;;4.60;99.90;;;;;;1992531;71;21039;-75
2020/12/29 04:28:49;;;;;;;0.30;0.20;;;4.60;99.90;;;;;;1986716;71;21046;-75
2020/12/29 04:31:15;;;;;;;0.10;0.10;;;4.60;99.90;;;;;;1995002;70;21121;-75
2020/12/29 04:33:41;;;;;;;2.55;0.25;;;4.60;99.90;;;;;;1969293;72;21066;-75
2020/12/29 04:36:07;;;;;;;0.23;0.20;;;4.60;99.90;;;;;;1981357;70;21054;-76
2020/12/29 04:38:34;;;;;;;0.20;0.20;;;4.60;99.90;;;;;;1993391;71;21473;-76
2020/12/29 04:41:00;;;;;;;0.53;0.30;;;4.60;99.90;;;;;;1988533;71;21459;-75
2020/12/29 04:43:26;;;;;;;0.17;0.17;;;4.60;99.90;;;;;;1988075;71;21454;-76
2020/12/29 04:45:52;;;;;;;0.30;0.30;;;4.60;99.90;;;;;;1991425;71;21054;-76
2020/12/29 04:48:18;;;;;;;0.10;0.10;;;4.60;99.90;;;;;;1992240;71;21070;-76
2020/12/29 04:50:44;;;;;;;0.20;0.20;;;4.60;99.90;;;;;;1950091;71;21089;-76
2020/12/29 04:53:10;;;;;;;0.30;0.20;;;4.60;99.90;;;;;;1930912;72;21140;-75
2020/12/29 04:55:36;;;;;;;0.55;0.30;;;4.70;99.90;;;;;;1969828;70;21120;-75
2020/12/29 04:58:03;;;;;;;0.10;0.10;;;4.70;99.90;;;;;;1960617;71;21058;-76
2020/12/29 05:00:29;;;;;;;0.10;0.10;;;4.70;99.90;;;;;;1969589;70;21140;-76
2020/12/29 05:02:55;;;;;;;3.08;0.78;;;4.70;99.90;;;;;;1955827;70;21417;-75
2020/12/29 05:05:21;;;;;;;0.10;0.10;;;4.70;99.90;;;;;;1967201;70;21474;-76
2020/12/29 05:07:47;;;;;;;0.13;0.13;;;4.80;99.90;;;;;;1963806;71;21564;-76
2020/12/29 05:10:16;;;;;;;0.55;0.20;;;4.70;99.90;;;;;;1967199;70;21065;-76
2020/12/29 05:12:41;;;;;;;0.10;0.10;;;4.70;99.90;;;;;;1952829;70;21096;-77
2020/12/29 05:15:07;;;;;;;0.20;0.20;;;4.60;99.90;;;;;;1969986;71;21058;-76
2020/12/29 05:17:33;;;;;;;0.28;0.28;;;4.60;99.90;;;;;;1953582;70;21097;-76
2020/12/29 05:20:00;;;;;;;0.35;0.20;;;4.60;99.90;;;;;;1942294;71;21163;-76
2020/12/29 05:22:26;;;;;;;0.17;0.17;;;4.60;99.90;;;;;;1948602;71;21168;-74
2020/12/29 05:24:52;;;;;;;1.98;0.47;;;4.60;99.90;;;;;;1954989;71;21079;-76
2020/12/29 05:27:18;;;;;;;0.20;0.20;;;4.60;99.90;;;;;;1961771;71;21039;-76
2020/12/29 05:29:44;;;;;;;0.47;0.20;;;4.60;99.90;;;;;;1947002;71;21078;-77
2020/12/29 05:32:10;;;;;;;1.95;0.30;;;4.70;99.90;;;;;;1971442;71;21059;-76
2020/12/29 05:34:36;;;;;;;0.80;0.20;;;4.70;99.90;;;;;;1962881;71;21188;-76
2020/12/29 05:37:04;;;;;;;0.20;0.20;;;4.60;99.90;;;;;;1949194;70;21164;-76
2020/12/29 05:39:30;;;;;;;1.02;0.28;;;4.60;99.90;;;;;;1958328;71;21055;-75
2020/12/29 05:41:56;;;;;;;0.10;0.10;;;4.60;99.90;;;;;;1961801;71;21070;-76
2020/12/29 05:44:22;;;;;;;0.20;0.20;;;4.50;99.90;;;;;;1961723;70;21063;-74
2020/12/29 05:46:48;;;;;;;0.15;0.15;;;4.40;99.90;;;;;;1957682;71;21038;-76
2020/12/29 05:49:17;;;;;;;3.50;0.30;;;4.40;99.90;;;;;;1960814;71;21024;-75
2020/12/29 05:51:44;;;;;;;1.80;0.17;;;4.30;99.90;;;;;;1976502;70;21463;-76
2020/12/29 05:54:10;;;;;;;0.72;0.15;;;4.20;99.90;;;;;;1989189;71;21040;-75
2020/12/29 05:56:36;;;;;;;0.95;0.25;;;4.20;99.90;;;;;;1991230;71;21054;-76
2020/12/29 05:59:03;;;;;;;0.17;0.17;;;4.10;99.90;;;;;;1953649;71;21072;-75
2020/12/29 06:01:29;;;;;;;0.30;0.30;;;4.10;99.90;;;;;;1945534;72;21087;-75
2020/12/29 06:03:55;;;;;;;1.75;0.42;;;4.10;99.90;;;;;;1957797;72;21552;-75
2020/12/29 06:06:21;;;;;;;0.98;0.20;;;4.10;99.90;;;;;;1944690;72;21572;-74
2020/12/29 06:08:47;;;;;;;1.75;0.37;;;4.10;99.90;;;;;;1940983;73;21500;-75
2020/12/29 06:11:14;;;;;;;0.65;0.30;;;4.10;99.90;;;;;;1946186;72;21163;-74
2020/12/29 06:13:40;;;;;;;0.15;0.15;;;4.10;99.90;;;;;;1956495;72;21158;-75
2020/12/29 06:16:06;;;;;;;0.75;0.10;;;4.10;99.90;;;;;;1948643;71;21076;-76
2020/12/29 06:18:32;;;;;;;0.13;0.13;;;4.10;99.90;;;;;;1946130;72;21063;-75
2020/12/29 06:20:58;;;;;;;1.30;0.40;;;4.10;99.90;;;;;;1947070;72;21058;-75
2020/12/29 06:23:24;;;;;;;1.45;0.20;;;4.10;99.90;;;;;;1944475;73;21068;-74
2020/12/29 06:25:50;;;;;;;0.53;0.20;;;4.00;99.90;;;;;;1946928;72;21072;-75
2020/12/29 06:28:19;;;;;;;0.20;0.20;;;4.00;99.90;;;;;;1960742;72;21048;-76
2020/12/29 06:30:45;;;;;;;0.20;0.20;;;4.00;99.90;;;;;;1958836;72;21037;-75
2020/12/29 06:33:11;;;;;;;0.33;0.30;;;4.00;99.90;;;;;;1952459;72;21152;-75
2020/12/29 06:35:38;;;;;;;0.47;0.25;;;4.10;99.90;;;;;;1941111;72;21080;-75
2020/12/29 06:38:04;;;;;;;2.20;0.25;;;4.10;99.90;;;;;;1957806;72;21217;-74
2020/12/29 06:40:30;;;;;;;0.53;0.30;;;4.10;99.90;;;;;;1951869;73;21079;-75
2020/12/29 06:42:56;;;;;;;0.75;0.28;;;4.20;99.90;;;;;;1955989;73;21076;-76
2020/12/29 06:45:22;;;;;;;0.93;0.20;;;4.20;99.90;;;;;;1953633;72;21084;-75
2020/12/29 06:47:48;;;;;;;0.23;0.13;;;4.10;99.90;;;;;;1955122;72;21035;-75
2020/12/29 06:50:14;;;;;;;1.47;0.37;;;4.10;99.90;;;;;;1952586;72;21079;-76
2020/12/29 06:52:41;;;;;;;0.65;0.30;;;4.10;99.90;;;;;;1949402;72;21061;-76
2020/12/29 06:55:07;;;;;;;0.57;0.33;;;4.10;99.90;;;;;;1956715;72;21076;-75
2020/12/29 06:57:33;;;;;;;0.30;0.30;;;4.10;99.90;;;;;;1954796;73;21180;-75
2020/12/29 06:59:59;;;;;;;0.57;0.30;;;4.20;99.90;;;;;;1952029;72;21054;-76
2020/12/29 07:02:26;;;;;;;1.12;0.30;;;4.10;99.90;;;;;;1953813;72;21259;-76
2020/12/29 07:04:52;;;;;;;3.58;0.50;;;4.20;99.90;;;;;;1949000;71;21063;-75
2020/12/29 07:07:18;;;;;;;0.80;0.30;;;4.20;99.90;;;;;;1943365;72;21058;-75
2020/12/29 07:09:44;;;;;;;1.80;0.23;;;4.20;99.90;;;;;;1958310;72;21138;-75
2020/12/29 07:12:10;;;;;;;0.82;0.30;;;4.30;99.90;;;;;;1939730;72;21035;-76
2020/12/29 07:14:36;;;;;;;0.20;0.20;;;4.30;99.90;;;;;;1948346;71;21054;-75
2020/12/29 07:17:02;;;;;;;6.47;1.47;;;4.30;99.90;;;;;;1960108;72;21059;-75
2020/12/29 07:19:29;;;;;;;0.10;0.10;;;4.30;99.90;;;;;;1959554;72;21111;-76
2020/12/29 07:21:55;;;;;;;2.83;0.35;;;4.30;99.90;;;;;;1940398;72;21183;-76
2020/12/29 07:24:21;;;;;;;0.20;0.20;;;4.20;99.90;;;;;;1951700;71;21160;-76
2020/12/29 07:26:47;;;;;;;1.35;0.33;;;4.20;99.90;;;;;;1956177;72;21075;-75
2020/12/29 07:29:13;;;;;;;1.22;0.55;;;4.20;99.90;;;;;;1946195;72;21053;-76
2020/12/29 07:31:39;;;;;;;1.17;0.37;;;4.20;99.90;;;;;;1951563;72;21479;-76
2020/12/29 07:34:07;;;;;;;0.47;0.23;;;4.20;99.90;;;;;;1947707;72;21452;-76
2020/12/29 07:36:33;;;;;;;2.42;0.40;;;4.20;99.90;;;;;;1959775;71;21105;-74
2020/12/29 07:39:00;;;;;;;2.55;0.50;;;4.20;99.90;;;;;;1952983;71;21067;-74
2020/12/29 07:41:26;;;;;;;0.90;0.23;;;4.20;99.90;;;;;;1955145;72;21141;-74
2020/12/29 07:43:53;;;;;;;1.10;0.70;;;4.20;99.90;;;;;;1964731;72;21055;-75
2020/12/29 07:46:19;;;;;;;0.33;0.30;;;4.20;99.90;;;;;;1931965;72;21164;-77
2020/12/29 07:48:45;;;;;;;0.78;0.40;;;4.30;99.90;;;;;;1986495;71;21070;-77
2020/12/29 07:51:11;;;;;;;0.72;0.45;;;4.30;99.90;;;;;;1977325;70;21101;-77
2020/12/29 07:53:37;;;;;;;0.33;0.25;;;4.30;99.90;;;;;;1993597;71;21550;-76
2020/12/29 07:56:03;;;;;;;2.67;0.60;;;4.30;99.90;;;;;;1983872;72;21589;-76
2020/12/29 07:58:30;;;;;;;3.02;0.78;;;4.30;99.90;;;;;;1986314;72;21054;-77
2020/12/29 08:00:56;;;;;;;0.53;0.20;;;4.40;99.90;;;;;;1986311;71;21050;-77
2020/12/29 08:03:22;;;;;;;0.40;0.40;;;4.50;99.90;;;;;;1976909;72;21121;-75
2020/12/29 08:05:48;;;;;;;0.55;0.20;;;4.50;99.90;;;;;;1987878;70;21019;-77
2020/12/29 08:08:17;;;;;;;0.33;0.33;;;4.50;99.90;;;;;;1980326;71;21050;-75
2020/12/29 08:10:44;;;;;;;1.20;0.80;;;4.60;99.90;;;;;;1982353;71;21067;-77
2020/12/29 08:13:10;;;;;;;1.07;0.40;;;4.60;99.90;;;;;;1981742;71;21585;-81
2020/12/29 08:15:36;;;;;;;0.23;0.23;;;4.60;99.90;;;;;;1969374;72;21054;-78
2020/12/29 08:18:03;;;;;;;1.37;0.40;;;4.60;99.90;;;;;;1986162;71;21019;-79
2020/12/29 08:20:29;;;;;;;0.40;0.35;;;4.70;99.90;;;;;;1984814;71;21059;-81
2020/12/29 08:22:55;;;;;;;1.87;0.55;;;4.70;99.90;;;;;;1984807;71;21073;-78
2020/12/29 08:25:21;;;;;;;2.95;0.33;;;4.80;99.90;;;;;;1974138;72;21128;-78
2020/12/29 08:27:47;;;;;;;0.68;0.53;;;4.80;99.90;;;;;;1984889;71;21453;-77
2020/12/29 08:30:13;;;;;;;2.60;0.45;;;4.90;99.90;;;;;;1986090;72;21470;-77
2020/12/29 08:32:39;;;;;;;0.47;0.33;;;4.90;99.90;;;;;;1986461;71;21522;-77
2020/12/29 08:35:06;;;;;;;1.85;0.60;;;5.00;99.90;;;;;;1980565;72;21054;-77
2020/12/29 08:37:32;;;;;;;1.20;0.70;;;5.00;99.90;;;;;;1991567;70;21168;-77
2020/12/29 08:39:59;;;;;;;1.37;0.57;;;5.10;99.90;;;;;;1988450;71;21123;-77
2020/12/29 08:42:25;;;;;;;1.32;0.60;;;5.20;99.90;;;;;;1989576;71;21123;-76
2020/12/29 08:44:51;;;;;;;0.42;0.37;;;5.30;99.90;;;;;;1972660;72;21208;-76
2020/12/29 08:47:17;;;;;;;0.80;0.65;;;5.20;99.90;;;;;;1991082;70;21450;-76
2020/12/29 08:49:43;;;;;;;1.17;0.40;;;5.20;99.90;;;;;;1987660;71;21403;-76
2020/12/29 08:52:09;;;;;;;1.67;0.80;;;5.20;99.90;;;;;;1988789;72;21512;-77
2020/12/29 08:54:36;;;;;;;0.50;0.50;;;5.20;99.90;;;;;;1983016;71;21054;-80
2020/12/29 08:57:02;;;;;;;3.08;0.40;;;5.10;99.90;;;;;;1982050;71;21065;-76
2020/12/29 08:59:28;;;;;;;6.55;0.60;;;5.20;99.90;;;;;;1975004;72;21063;-73
2020/12/29 09:01:54;;;;;;;0.20;0.20;;;5.10;99.90;;;;;;1976089;71;21050;-74
2020/12/29 09:04:20;;;;;;;0.85;0.40;;;5.10;99.90;;;;;;1986980;72;21054;-75
2020/12/29 09:06:46;;;;;;;0.33;0.33;;;5.20;99.90;;;;;;1975504;71;21027;-74
2020/12/29 09:09:12;;;;;;;3.58;0.60;;;5.20;99.90;;;;;;1993722;71;21123;-79
2020/12/29 09:11:39;;;;;;;0.53;0.30;;;5.20;99.90;;;;;;1976409;71;21520;-78
2020/12/29 09:14:05;;;;;;;0.70;0.30;;;5.10;99.90;;;;;;1984155;71;21466;-78
2020/12/29 09:16:31;;;;;;;0.37;0.33;;;5.20;99.90;;;;;;1986458;71;21462;-78
2020/12/29 09:18:57;;;;;;;0.80;0.80;;;5.10;99.90;;;;;;1989838;71;21066;-78
2020/12/29 09:21:23;;;;;;;0.40;0.40;;;5.10;99.90;;;;;;1962665;72;21057;-78
2020/12/29 09:23:49;;;;;;;0.95;0.80;;;5.00;99.90;;;;;;1954872;72;21070;-80
2020/12/29 09:26:16;;;;;;;1.45;0.40;;;4.90;99.90;;;;;;1941618;71;21068;-78
2020/12/29 09:28:44;;;;;;;1.65;0.50;;;4.80;99.90;;;;;;1986899;72;21131;-78
2020/12/29 09:31:10;;;;;;;0.95;0.78;;;4.70;99.90;;;;;;1988631;70;21056;-78
2020/12/29 09:33:36;;;;;;;0.50;0.50;;;4.60;99.90;;;;;;1989129;71;21133;-77
2020/12/29 09:36:03;;;;;;;0.98;0.50;;;4.50;99.90;;;;;;1992639;71;21074;-77
2020/12/29 09:38:29;;;;;;;1.30;0.45;;;4.30;99.90;;;;;;1961394;72;21410;-77
2020/12/29 09:40:55;;;;;;;2.27;0.45;;;4.20;99.90;;;;;;1985025;70;21403;-78
2020/12/29 09:43:24;;;;;;;0.88;0.37;;;4.10;99.90;;;;;;1992420;71;21477;-76
2020/12/29 09:45:50;;;;;;;1.80;0.60;;;4.10;99.90;;;;;;1993739;71;21129;-78
2020/12/29 09:48:16;;;;;;;0.47;0.47;;;3.90;99.90;;;;;;1994519;71;21030;-79
2020/12/29 09:50:42;;;;;;;3.75;1.07;;;4.00;99.90;;;;;;1984209;71;21058;-78
2020/12/29 09:53:08;;;;;;;1.27;0.60;;;4.00;99.90;;;;;;1988989;71;21199;-79
2020/12/29 09:55:34;;;;;;;1.15;0.50;;;4.00;99.90;;;;;;1988089;71;21585;-77
2020/12/29 09:58:01;;;;;;;0.40;0.40;;;4.10;99.90;;;;;;1990764;70;21437;-79
2020/12/29 10:00:27;;;;;;;0.40;0.27;;;4.10;99.90;;;;;;1991475;71;21471;-75
2020/12/29 10:02:53;;;;;;;1.95;0.50;;;4.20;99.90;;;;;;1983353;71;21020;-76
2020/12/29 10:05:19;;;;;;;0.85;0.57;;;4.30;99.90;;;;;;1980086;71;21066;-76
2020/12/29 10:07:45;;;;;;;1.37;0.50;;;4.40;99.90;;;;;;1983082;71;21101;-77
2020/12/29 10:10:11;;;;;;;1.52;0.65;;;4.40;99.90;;;;;;1986276;71;21167;-78
2020/12/29 10:12:38;;;;;;;2.00;0.85;;;4.50;99.90;;;;;;1977251;72;21132;-78
2020/12/29 10:15:06;;;;;;;2.92;0.93;;;4.60;99.90;;;;;;1989324;71;21085;-78
2020/12/29 10:17:32;;;;;;;0.57;0.57;;;4.80;99.90;;;;;;1982885;70;21062;-76
2020/12/29 10:19:59;;;;;;;0.80;0.47;;;4.90;99.90;;;;;;1948117;72;21119;-77
2020/12/29 10:22:25;;;;;;;2.75;0.60;;;4.90;99.90;;;;;;1982833;72;21151;-77
2020/12/29 10:24:51;;;;;;;4.70;1.10;;;5.00;99.90;;;;;;1987135;71;21123;-75
2020/12/29 10:27:17;;;;;;;2.62;0.45;;;5.00;99.90;;;;;;1988572;71;21514;-76
2020/12/29 10:29:43;;;;;;;3.35;0.60;;;5.00;99.90;;;;;;1953599;72;21410;-76
2020/12/29 10:32:09;;;;;;;0.20;0.20;;;5.10;99.90;;;;;;1982829;71;21542;-76
2020/12/29 10:34:35;;;;;;;0.23;0.20;;;5.00;99.90;;;;;;1980856;71;21045;-76
2020/12/29 10:37:01;;;;;;;1.00;0.50;;;5.00;99.90;;;;;;1987741;70;21054;-77
2020/12/29 10:39:28;;;;;;;0.30;0.30;;;5.00;99.90;;;;;;1982400;71;21050;-78
2020/12/29 10:41:54;;;;;;;0.15;0.15;;;5.20;99.90;;;;;;1981828;72;21136;-78
2020/12/29 10:44:20;;;;;;;3.20;0.50;;;5.10;99.90;;;;;;1979547;71;21141;-74
2020/12/29 10:46:46;;;;;;;1.00;0.30;;;5.10;99.90;;;;;;1967529;70;21116;-75
2020/12/29 10:49:12;;;;;;;0.50;0.30;;;5.10;99.90;;;;;;1958012;72;21076;-77
2020/12/29 10:51:39;;;;;;;0.90;0.23;;;5.10;99.90;;;;;;1963829;72;21451;-74
2020/12/29 10:54:05;;;;;;;2.55;0.17;;;5.00;99.90;;;;;;1956968;72;21457;-77
2020/12/29 10:56:31;;;;;;;0.20;0.20;;;5.10;99.90;;;;;;1965232;71;21470;-76
2020/12/29 10:58:57;;;;;;;1.37;0.23;;;5.20;99.90;;;;;;1972926;70;21071;-77
2020/12/29 11:01:23;;;;;;;1.12;0.30;;;5.40;99.90;;;;;;1972263;70;21032;-75
2020/12/29 11:03:49;;;;;;;0.13;0.13;;;5.40;99.90;;;;;;1964983;70;21078;-77
2020/12/29 11:06:15;;;;;;;0.20;0.20;;;5.50;99.90;;;;;;1969497;70;21067;-78
2020/12/29 11:08:41;;;;;;;0.30;0.30;;;5.70;99.90;;;;;;1970644;70;21177;-78
2020/12/29 11:11:08;;;;;;;0.30;0.30;;;5.60;99.90;;;;;;1964564;70;21054;-72
2020/12/29 11:13:34;;;;;;;1.27;0.20;;;5.90;99.90;;;;;;1967546;70;21104;-75
2020/12/29 11:16:00;;;;;;;0.30;0.30;;;6.00;99.90;;;;;;1974575;70;21599;-78
2020/12/29 11:18:27;;;;;;;0.53;0.40;;;5.90;99.90;;;;;;1982953;70;21512;-77
2020/12/29 11:20:53;;;;;;;0.30;0.30;;;5.90;99.90;;;;;;1964547;70;21019;-76
2020/12/29 11:23:20;;;;;;;0.23;0.23;;;5.80;99.90;;;;;;1968065;70;21119;-77
2020/12/29 11:25:46;;;;;;;0.20;0.20;;;5.80;99.90;;;;;;1965701;70;21071;-77
2020/12/29 11:28:12;;;;;;;0.30;0.20;;;6.00;99.90;;;;;;1973380;70;21071;-76
2020/12/29 11:30:38;;;;;;;0.15;0.15;;;6.20;99.90;;;;;;1983707;70;21067;-77
2020/12/29 11:33:04;;;;;;;0.33;0.20;;;6.50;99.90;;;;;;1973942;70;21429;-78
2020/12/29 11:35:30;;;;;;;0.30;0.30;;;6.50;99.90;;;;;;1972902;70;21594;-78
2020/12/29 11:37:56;;;;;;;1.92;0.55;;;6.30;99.90;;;;;;1970979;70;21571;-80
2020/12/29 11:40:22;;;;;;;0.20;0.20;;;6.00;99.90;;;;;;1958261;70;21127;-78
2020/12/29 11:42:49;;;;;;;0.20;0.20;;;5.70;99.90;;;;;;1972428;70;21070;-79
2020/12/29 11:45:15;;;;;;;1.57;0.30;;;5.70;99.90;;;;;;1968305;70;21137;-79
2020/12/29 11:47:41;;;;;;;1.85;0.35;;;5.70;99.90;;;;;;1963751;70;21137;-79
2020/12/29 11:50:07;;;;;;;0.30;0.30;;;5.60;99.90;;;;;;1971584;70;21139;-79
2020/12/29 11:52:33;;;;;;;0.40;0.20;;;5.60;99.90;;;;;;1963673;70;21058;-79
2020/12/29 11:54:59;;;;;;;0.20;0.20;;;5.60;99.90;;;;;;1960735;70;21048;-79
2020/12/29 11:57:25;;;;;;;0.20;0.20;;;5.70;99.90;;;;;;1966592;70;21062;-79
2020/12/29 11:59:51;;;;;;;0.60;0.35;;;5.70;99.90;;;;;;1957803;72;21138;-79
2020/12/29 12:02:18;;;;;;;0.30;0.30;;;5.70;99.90;;;;;;1970781;70;21145;-78
2020/12/29 12:04:44;;;;;;;0.40;0.40;;;6.00;99.90;;;;;;1968834;71;21053;-78
2020/12/29 12:07:13;;;;;;;0.20;0.20;;;5.90;99.90;;;;;;1966786;70;21161;-78
2020/12/29 12:09:39;;;;;;;0.33;0.33;;;5.80;99.90;;;;;;1978763;70;21531;-78
2020/12/29 12:12:05;;;;;;;3.30;0.70;;;5.80;99.90;;;;;;1957839;71;21455;-77
2020/12/29 12:17:05;;;;;;;0.13;0.13;;;6.40;99.90;;;;;;1960927;70;21062;-81
2020/12/29 12:19:31;;;;;;;0.20;0.20;;;6.30;99.90;;;;;;1927963;72;21072;-79
2020/12/29 12:21:57;;;;;;;0.30;0.30;;;6.50;99.90;;;;;;1991278;71;21238;-80
2020/12/29 12:24:23;;;;;;;0.33;0.33;;;6.90;99.90;;;;;;1942703;72;21172;-77
2020/12/29 12:26:49;;;;;;;0.95;0.20;;;6.80;99.90;;;;;;1991402;70;21066;-78
2020/12/29 12:29:16;;;;;;;2.77;0.28;;;6.90;99.90;;;;;;1990403;71;21053;-79
2020/12/29 12:31:43;;;;;;;0.37;0.30;;;6.90;99.90;;;;;;1989997;71;21139;-78
2020/12/29 12:34:09;;;;;;;5.70;0.30;;;6.40;99.90;;;;;;1991062;71;21114;-79
2020/12/29 12:36:35;;;;;;;1.17;0.40;;;6.50;99.90;;;;;;1991126;70;21023;-77
2020/12/29 12:39:12;;;;;;;0.30;0.30;;;6.60;99.90;;;;;;1981630;72;21054;-78
2020/12/29 12:41:38;;;;;;;0.53;0.20;;;7.00;99.90;;;;;;1988884;71;21186;-80
2020/12/29 12:44:04;;;;;;;4.72;0.20;;;7.70;99.90;;;;;;1988241;71;21028;-78
2020/12/29 12:46:30;;;;;;;0.20;0.20;;;8.30;99.90;;;;;;1992546;70;21124;-78
2020/12/29 12:48:56;;;;;;;0.30;0.30;;;7.90;99.90;;;;;;1951384;72;21216;-78
2020/12/29 12:51:22;;;;;;;0.30;0.30;;;7.50;99.90;;;;;;1954770;71;21105;-77
2020/12/29 12:53:48;;;;;;;0.60;0.30;;;7.60;99.90;;;;;;1953467;73;21076;-78